createdAt,value
2023-03-29T00:02:10.359Z,101613.78
2023-03-29T00:04:37.178Z,101605.84
2023-03-29T00:07:05.943Z,101594.56
2023-03-29T00:09:33.548Z,101579.69
2023-03-29T00:12:01.549Z,101581.66
2023-03-29T00:14:30.831Z,101586.94
2023-03-29T00:16:58.594Z,101593.03
2023-03-29T00:19:25.643Z,101596.50
2023-03-29T00:21:52.613Z,101595.53
2023-03-29T00:24:21.544Z,101598.19
2023-03-29T00:26:48.601Z,101592.06
2023-03-29T00:29:16.828Z,101594.56
2023-03-29T00:31:51.354Z,101604.31
2023-03-29T00:34:18.334Z,101598.03
2023-03-29T00:36:45.117Z,101586.78
2023-03-29T00:39:12.280Z,101578.56
2023-03-29T00:41:40.554Z,101583.03
2023-03-29T00:44:08.307Z,101574.13
2023-03-29T00:46:36.208Z,101572.31
2023-03-29T00:49:08.029Z,101562.41
2023-03-29T00:51:38.365Z,101559.63
2023-03-29T00:54:09.740Z,101556.00
2023-03-29T00:56:40.616Z,101554.31
2023-03-29T00:59:13.851Z,101548.19
2023-03-29T01:01:45.826Z,101536.78
2023-03-29T01:04:18.677Z,101537.47
2023-03-29T01:06:49.608Z,101538.31
2023-03-29T01:09:19.286Z,101529.56
2023-03-29T01:11:51.540Z,101522.59
2023-03-29T01:14:26.724Z,101519.94
2023-03-29T01:16:54.683Z,101517.16
2023-03-29T01:19:26.449Z,101508.25
2023-03-29T01:22:02.527Z,101506.44
2023-03-29T01:24:50.509Z,101494.19
2023-03-29T01:27:23.552Z,101497.53
2023-03-29T01:29:57.301Z,101491.41
2023-03-29T01:32:31.165Z,101499.22
2023-03-29T01:35:02.428Z,101498.38
2023-03-29T01:37:34.461Z,101488.47
2023-03-29T01:40:01.558Z,101493.59
2023-03-29T01:42:41.425Z,101485.69
2023-03-29T01:45:17.643Z,101479.41
2023-03-29T01:47:48.119Z,101488.19
2023-03-29T01:50:19.755Z,101489.00
2023-03-29T01:52:52.409Z,101483.59
2023-03-29T01:55:23.875Z,101483.41
2023-03-29T01:57:56.602Z,101486.06
2023-03-29T02:00:27.848Z,101471.84
2023-03-29T02:03:00.254Z,101481.31
2023-03-29T02:05:31.605Z,101484.09
2023-03-29T02:08:00.731Z,101468.09
2023-03-29T02:10:27.976Z,101468.09
2023-03-29T02:12:56.258Z,101459.19
2023-03-29T02:15:25.293Z,101467.13
2023-03-29T02:17:52.332Z,101470.44
2023-03-29T02:20:23.823Z,101461.00
2023-03-29T02:22:58.697Z,101459.84
2023-03-29T02:25:26.096Z,101465.00
2023-03-29T02:27:53.512Z,101461.38
2023-03-29T02:30:22.515Z,101462.22
2023-03-29T02:32:57.408Z,101458.59
2023-03-29T02:35:34.501Z,101461.22
2023-03-29T02:38:04.428Z,101457.47
2023-03-29T02:40:33.380Z,101455.78
2023-03-29T02:43:03.428Z,101452.19
2023-03-29T02:45:30.856Z,101454.81
2023-03-29T02:48:05.238Z,101444.25
2023-03-29T02:50:37.366Z,101447.69
2023-03-29T02:53:13.238Z,101447.88
2023-03-29T02:55:40.032Z,101449.66
2023-03-29T02:58:09.729Z,101449.53
2023-03-29T03:00:38.406Z,101436.31
2023-03-29T03:03:08.007Z,101444.38
2023-03-29T03:05:36.107Z,101436.31
2023-03-29T03:08:04.670Z,101435.28
2023-03-29T03:10:33.302Z,101429.16
2023-03-29T03:13:00.362Z,101428.03
2023-03-29T03:15:27.491Z,101423.72
2023-03-29T03:17:56.175Z,101414.00
2023-03-29T03:20:24.403Z,101421.94
2023-03-29T03:22:51.466Z,101406.19
2023-03-29T03:25:21.173Z,101412.19
2023-03-29T03:27:49.253Z,101396.31
2023-03-29T03:30:17.151Z,101389.34
2023-03-29T03:32:44.836Z,101392.00
2023-03-29T03:35:13.093Z,101385.03
2023-03-29T03:37:41.594Z,101375.47
2023-03-29T03:40:09.651Z,101371.16
2023-03-29T03:42:36.355Z,101381.56
2023-03-29T03:45:03.219Z,101385.88
2023-03-29T03:47:31.093Z,101384.88
2023-03-29T03:49:58.398Z,101384.59
2023-03-29T03:52:25.309Z,101385.44
2023-03-29T03:54:53.684Z,101386.09
2023-03-29T03:57:23.143Z,101382.47
2023-03-29T03:59:49.933Z,101380.81
2023-03-29T04:02:16.708Z,101383.44
2023-03-29T04:04:43.562Z,101383.31
2023-03-29T04:07:13.205Z,101377.03
2023-03-29T04:09:40.303Z,101378.69
2023-03-29T04:12:10.771Z,101380.50
2023-03-29T04:14:37.627Z,101381.19
2023-03-29T04:17:08.000Z,101381.19
2023-03-29T04:19:35.070Z,101382.03
2023-03-29T04:22:01.879Z,101393.44
2023-03-29T04:24:28.626Z,101379.53
2023-03-29T04:26:55.545Z,101381.19
2023-03-29T04:29:23.987Z,101378.56
2023-03-29T04:31:50.958Z,101374.94
2023-03-29T04:34:17.755Z,101373.09
2023-03-29T04:36:44.792Z,101374.75
2023-03-29T04:39:12.210Z,101374.75
2023-03-29T04:41:39.207Z,101372.94
2023-03-29T04:44:06.941Z,101367.34
2023-03-29T04:46:35.260Z,101364.72
2023-03-29T04:49:02.280Z,101354.13
2023-03-29T04:51:29.097Z,101353.97
2023-03-29T04:53:55.813Z,101357.47
2023-03-29T04:56:23.319Z,101354.63
2023-03-29T04:58:51.004Z,101349.19
2023-03-29T05:01:17.836Z,101346.53
2023-03-29T05:03:46.148Z,101355.31
2023-03-29T05:06:12.984Z,101352.69
2023-03-29T05:08:40.475Z,101358.81
2023-03-29T05:11:08.470Z,101352.69
2023-03-29T05:13:35.433Z,101340.28
2023-03-29T05:16:03.740Z,101350.72
2023-03-29T05:18:31.144Z,101355.19
2023-03-29T05:21:00.295Z,101355.03
2023-03-29T05:23:27.466Z,101357.69
2023-03-29T05:25:54.332Z,101352.38
2023-03-29T05:28:21.747Z,101350.38
2023-03-29T05:31:00.098Z,101348.56
2023-03-29T05:33:27.315Z,101350.25
2023-03-29T05:36:02.841Z,101348.44
2023-03-29T05:38:30.181Z,101354.56
2023-03-29T05:40:57.612Z,101357.19
2023-03-29T05:43:24.755Z,101351.06
2023-03-29T05:45:52.836Z,101355.38
2023-03-29T05:48:19.572Z,101358.88
2023-03-29T05:50:48.482Z,101365.69
2023-03-29T05:53:17.072Z,101362.03
2023-03-29T05:55:46.846Z,101364.66
2023-03-29T05:58:14.425Z,101365.50
2023-03-29T06:00:41.978Z,101360.22
2023-03-29T06:03:21.102Z,101362.72
2023-03-29T06:05:50.298Z,101362.56
2023-03-29T06:08:18.464Z,101361.72
2023-03-29T06:10:45.568Z,101365.22
2023-03-29T06:13:12.795Z,101360.91
2023-03-29T06:15:39.598Z,101359.59
2023-03-29T06:18:06.678Z,101362.91
2023-03-29T06:20:33.757Z,101357.63
2023-03-29T06:23:02.188Z,101365.28
2023-03-29T06:25:30.402Z,101361.66
2023-03-29T06:27:57.530Z,101351.72
2023-03-29T06:30:25.007Z,101352.53
2023-03-29T06:32:51.761Z,101353.22
2023-03-29T06:35:18.695Z,101360.03
2023-03-29T06:37:50.062Z,101373.94
2023-03-29T06:40:19.119Z,101356.91
2023-03-29T06:42:47.933Z,101361.06
2023-03-29T06:45:14.826Z,101366.03
2023-03-29T06:47:42.721Z,101368.69
2023-03-29T06:50:11.717Z,101369.38
2023-03-29T06:52:38.622Z,101372.53
2023-03-29T06:55:07.856Z,101378.34
2023-03-29T06:57:34.626Z,101375.56
2023-03-29T07:00:07.277Z,101372.91
2023-03-29T07:02:34.559Z,101375.25
2023-03-29T07:05:03.542Z,101373.44
2023-03-29T07:07:44.006Z,101378.44
2023-03-29T07:10:12.924Z,101379.78
2023-03-29T07:12:40.858Z,101378.66
2023-03-29T07:15:09.988Z,101375.66
2023-03-29T07:17:36.712Z,101374.53
2023-03-29T07:20:06.008Z,101373.41
2023-03-29T07:22:32.680Z,101372.91
2023-03-29T07:25:00.728Z,101369.13
2023-03-29T07:27:27.523Z,101376.59
2023-03-29T07:29:54.355Z,101376.28
2023-03-29T07:32:22.661Z,101380.25
2023-03-29T07:34:49.641Z,101374.66
2023-03-29T07:37:16.358Z,101369.03
2023-03-29T07:39:43.100Z,101374.84
2023-03-29T07:42:09.828Z,101366.56
2023-03-29T07:44:37.427Z,101370.56
2023-03-29T07:47:05.579Z,101377.34
2023-03-29T07:49:33.668Z,101372.59
2023-03-29T07:52:01.247Z,101374.06
2023-03-29T07:54:28.200Z,101386.03
2023-03-29T07:56:55.474Z,101383.88
2023-03-29T07:59:22.357Z,101385.38
2023-03-29T08:01:49.172Z,101378.09
2023-03-29T08:04:16.032Z,101381.09
2023-03-29T08:06:44.451Z,101377.28
2023-03-29T08:09:11.439Z,101376.13
2023-03-29T08:11:39.863Z,101381.94
2023-03-29T08:14:06.938Z,101378.13
2023-03-29T08:16:33.748Z,101382.13
2023-03-29T08:19:00.875Z,101374.50
2023-03-29T08:21:27.628Z,101374.19
2023-03-29T08:23:56.393Z,101376.34
2023-03-29T08:26:23.225Z,101374.22
2023-03-29T08:28:59.099Z,101370.22
2023-03-29T08:31:26.115Z,101360.91
2023-03-29T08:33:53.340Z,101366.59
2023-03-29T08:36:20.335Z,101366.09
2023-03-29T08:38:47.510Z,101361.09
2023-03-29T08:41:32.006Z,101368.59
2023-03-29T08:44:13.746Z,101360.94
2023-03-29T08:46:46.526Z,101359.44
2023-03-29T08:49:16.658Z,101357.94
2023-03-29T08:51:47.735Z,101359.97
2023-03-29T08:54:20.540Z,101368.91
2023-03-29T08:56:51.338Z,101354.28
2023-03-29T08:59:22.831Z,101350.13
2023-03-29T09:01:54.084Z,101349.31
2023-03-29T09:04:25.391Z,101362.91
2023-03-29T09:06:52.911Z,101359.59
2023-03-29T09:09:23.170Z,101360.75
2023-03-29T09:12:08.345Z,101359.22
2023-03-29T09:14:55.294Z,101360.38
2023-03-29T09:17:34.899Z,101362.53
2023-03-29T09:20:11.247Z,101357.53
2023-03-29T09:22:43.820Z,101356.00
2023-03-29T09:25:21.692Z,101354.47
2023-03-29T09:27:58.167Z,101362.78
2023-03-29T09:30:29.553Z,101371.91
2023-03-29T09:33:00.885Z,101376.84
2023-03-29T09:35:32.054Z,101362.06
2023-03-29T09:37:59.278Z,101357.88
2023-03-29T09:40:29.988Z,101360.00
2023-03-29T09:43:01.147Z,101349.69
2023-03-29T09:45:28.035Z,101347.31
2023-03-29T09:47:58.119Z,101351.13
2023-03-29T09:50:32.360Z,101358.38
2023-03-29T09:52:59.704Z,101350.69
2023-03-29T09:55:28.807Z,101355.16
2023-03-29T09:57:58.097Z,101356.09
2023-03-29T10:00:26.776Z,101367.69
2023-03-29T10:02:57.155Z,101360.66
2023-03-29T10:05:25.978Z,101355.81
2023-03-29T10:07:54.612Z,101356.94
2023-03-29T10:10:23.911Z,101354.38
2023-03-29T10:12:53.011Z,101357.19
2023-03-29T10:15:29.295Z,101353.81
2023-03-29T10:18:03.956Z,101356.56
2023-03-29T10:20:31.636Z,101356.06
2023-03-29T10:22:59.550Z,101347.34
2023-03-29T10:25:29.389Z,101354.59
2023-03-29T10:28:03.611Z,101343.38
2023-03-29T10:30:33.791Z,101334.22
2023-03-29T10:33:02.515Z,101332.66
2023-03-29T10:35:33.433Z,101335.41
2023-03-29T10:38:04.732Z,101335.72
2023-03-29T10:40:33.963Z,101329.81
2023-03-29T10:43:02.018Z,101333.59
2023-03-29T10:45:32.077Z,101338.19
2023-03-29T10:47:59.811Z,101328.16
2023-03-29T10:50:34.346Z,101325.31
2023-03-29T10:53:03.256Z,101325.97
2023-03-29T10:55:36.997Z,101323.09
2023-03-29T10:58:16.938Z,101333.75
2023-03-29T11:00:48.612Z,101337.91
2023-03-29T11:03:43.698Z,101334.69
2023-03-29T11:06:19.538Z,101331.84
2023-03-29T11:08:54.367Z,101323.47
2023-03-29T11:12:15.024Z,101317.38
2023-03-29T11:14:53.891Z,101319.50
2023-03-29T11:17:37.179Z,101312.97
2023-03-29T11:20:19.563Z,101314.44
2023-03-29T11:22:53.173Z,101308.91
2023-03-29T11:25:37.355Z,101298.03
2023-03-29T11:28:13.966Z,101287.00
2023-03-29T11:30:48.201Z,101291.94
2023-03-29T11:33:33.587Z,101297.09
2023-03-29T11:36:10.619Z,101282.56
2023-03-29T11:38:45.216Z,101288.53
2023-03-29T11:41:17.700Z,101286.06
2023-03-29T11:43:49.509Z,101270.06
2023-03-29T11:46:21.904Z,101269.84
2023-03-29T11:48:53.059Z,101267.00
2023-03-29T11:51:26.034Z,101279.16
2023-03-29T11:54:02.779Z,101283.28
2023-03-29T11:56:36.148Z,101286.56
2023-03-29T11:59:08.236Z,101289.25
2023-03-29T12:01:38.728Z,101277.56
2023-03-29T12:04:10.613Z,101288.06
2023-03-29T12:06:45.670Z,101290.72
2023-03-29T12:09:25.267Z,101293.38
2023-03-29T12:11:58.903Z,101286.84
2023-03-29T12:14:35.505Z,101295.47
2023-03-29T12:17:05.651Z,101291.78
2023-03-29T12:19:40.979Z,101292.81
2023-03-29T12:22:09.827Z,101287.47
2023-03-29T12:24:42.078Z,101287.28
2023-03-29T12:27:26.833Z,101284.44
2023-03-29T12:30:13.193Z,101278.94
2023-03-29T12:33:08.035Z,101278.38
2023-03-29T12:35:45.566Z,101278.19
2023-03-29T12:38:19.651Z,101278.78
2023-03-29T12:40:54.283Z,101277.78
2023-03-29T12:43:25.245Z,101276.13
2023-03-29T12:45:54.572Z,101275.09
2023-03-29T12:48:24.459Z,101276.78
2023-03-29T12:50:54.219Z,101284.13
2023-03-29T12:53:24.593Z,101275.09
2023-03-29T12:56:11.688Z,101267.31
2023-03-29T12:58:53.788Z,101270.78
2023-03-29T13:01:29.770Z,101263.81
2023-03-29T13:04:13.841Z,101260.94
2023-03-29T13:07:04.985Z,101254.59
2023-03-29T13:09:47.146Z,101247.59
2023-03-29T13:12:24.172Z,101239.41
2023-03-29T13:14:53.304Z,101229.53
2023-03-29T13:17:31.955Z,101225.84
2023-03-29T13:20:16.757Z,101228.53
2023-03-29T13:22:53.943Z,101222.81
2023-03-29T13:25:37.481Z,101210.72
2023-03-29T13:28:16.612Z,101211.16
2023-03-29T13:30:51.638Z,101207.09
2023-03-29T13:33:38.334Z,101204.84
2023-03-29T13:36:14.424Z,101191.75
2023-03-29T13:38:47.046Z,101186.84
2023-03-29T13:41:28.863Z,101187.28
2023-03-29T13:43:58.765Z,101188.34
2023-03-29T13:46:37.620Z,101194.94
2023-03-29T13:49:14.421Z,101188.78
2023-03-29T13:51:42.922Z,101183.53
2023-03-29T13:54:24.799Z,101177.56
2023-03-29T13:57:02.694Z,101163.63
2023-03-29T13:59:42.896Z,101170.22
2023-03-29T14:02:22.064Z,101166.31
2023-03-29T14:04:52.487Z,101162.25
2023-03-29T14:07:26.250Z,101163.47
2023-03-29T14:09:55.149Z,101168.44
2023-03-29T14:12:22.797Z,101168.25
2023-03-29T14:14:58.919Z,101166.19
2023-03-29T14:17:27.105Z,101159.63
2023-03-29T14:19:59.050Z,101157.59
2023-03-29T14:22:32.826Z,101157.16
2023-03-29T14:25:02.724Z,101158.63
2023-03-29T14:27:30.972Z,101151.00
2023-03-29T14:29:59.219Z,101145.47
2023-03-29T14:32:30.071Z,101134.59
2023-03-29T14:34:57.002Z,101119.19
2023-03-29T14:37:26.604Z,101124.28
2023-03-29T14:39:53.938Z,101116.91
2023-03-29T14:42:24.963Z,101126.38
2023-03-29T14:44:57.168Z,101121.63
2023-03-29T14:47:28.238Z,101123.97
2023-03-29T14:49:57.091Z,101119.03
2023-03-29T14:52:24.890Z,101106.47
2023-03-29T14:54:59.424Z,101100.91
2023-03-29T14:57:29.108Z,101098.88
2023-03-29T15:00:01.522Z,101091.47
2023-03-29T15:02:31.687Z,101094.75
2023-03-29T15:05:03.567Z,101083.66
2023-03-29T15:07:32.530Z,101080.78
2023-03-29T15:10:01.235Z,101075.84
2023-03-29T15:12:29.901Z,101077.28
2023-03-29T15:14:57.002Z,101061.88
2023-03-29T15:17:46.807Z,101062.25
2023-03-29T15:20:21.543Z,101057.34
2023-03-29T15:22:56.631Z,101047.03
2023-03-29T15:25:27.494Z,101042.31
2023-03-29T15:27:58.966Z,101043.72
2023-03-29T15:30:35.341Z,101042.50
2023-03-29T15:33:15.168Z,101041.28
2023-03-29T15:35:46.454Z,101038.16
2023-03-29T15:38:13.570Z,101029.72
2023-03-29T15:40:42.210Z,101021.28
2023-03-29T15:43:09.007Z,101027.88
2023-03-29T15:45:36.156Z,101023.97
2023-03-29T15:48:05.462Z,101016.53
2023-03-29T15:50:34.081Z,101016.31
2023-03-29T15:53:14.176Z,101005.41
2023-03-29T15:55:45.377Z,101007.88
2023-03-29T15:58:14.470Z,101001.28
2023-03-29T16:00:43.571Z,101001.06
2023-03-29T16:03:13.677Z,101000.25
2023-03-29T16:05:43.078Z,101002.72
2023-03-29T16:08:11.554Z,100994.06
2023-03-29T16:10:38.473Z,100991.38
2023-03-29T16:13:05.723Z,100986.22
2023-03-29T16:15:33.908Z,100975.53
2023-03-29T16:18:00.960Z,100970.16
2023-03-29T16:20:27.830Z,100960.53
2023-03-29T16:22:57.409Z,100957.84
2023-03-29T16:25:24.354Z,100961.56
2023-03-29T16:27:52.862Z,100948.16
2023-03-29T16:30:19.900Z,100945.25
2023-03-29T16:32:46.818Z,100946.91
2023-03-29T16:35:20.048Z,100952.25
2023-03-29T16:37:46.834Z,100940.97
2023-03-29T16:40:15.339Z,100949.00
2023-03-29T16:42:42.226Z,100948.38
2023-03-29T16:45:14.554Z,100943.84
2023-03-29T16:47:45.059Z,100934.16
2023-03-29T16:50:12.642Z,100933.34
2023-03-29T16:52:40.107Z,100939.50
2023-03-29T16:55:10.767Z,100936.00
2023-03-29T16:57:42.014Z,100936.00
2023-03-29T17:00:17.012Z,100920.97
2023-03-29T17:02:44.692Z,100920.97
2023-03-29T17:05:12.490Z,100922.00
2023-03-29T17:07:39.931Z,100918.50
2023-03-29T17:10:08.310Z,100889.28
2023-03-29T17:12:35.644Z,100890.31
2023-03-29T17:15:04.483Z,100881.66
2023-03-29T17:17:31.661Z,100856.13
2023-03-29T17:19:58.432Z,100867.09
2023-03-29T17:22:25.515Z,100882.31
2023-03-29T17:24:52.564Z,100893.22
2023-03-29T17:27:19.397Z,100888.91
2023-03-29T17:29:46.174Z,100880.25
2023-03-29T17:32:14.265Z,100887.47
2023-03-29T17:34:41.667Z,100877.81
2023-03-29T17:37:09.671Z,100867.31
2023-03-29T17:39:37.783Z,100848.78
2023-03-29T17:42:05.047Z,100844.66
2023-03-29T17:44:33.475Z,100844.06
2023-03-29T17:47:03.572Z,100842.63
2023-03-29T17:49:31.862Z,100842.84
2023-03-29T17:51:58.634Z,100828.25
2023-03-29T17:54:25.450Z,100834.63
2023-03-29T17:56:52.257Z,100834.00
2023-03-29T17:59:19.113Z,100833.41
2023-03-29T18:01:45.860Z,100837.34
2023-03-29T18:04:12.557Z,100839.38
2023-03-29T18:06:40.796Z,100840.41
2023-03-29T18:09:07.800Z,100828.31
2023-03-29T18:11:36.420Z,100830.56
2023-03-29T18:14:04.867Z,100831.78
2023-03-29T18:16:31.835Z,100831.41
2023-03-29T18:18:58.494Z,100836.13
2023-03-29T18:21:26.312Z,100831.00
2023-03-29T18:23:56.637Z,100835.94
2023-03-29T18:26:24.164Z,100830.78
2023-03-29T18:28:51.262Z,100838.16
2023-03-29T18:31:19.829Z,100835.72
2023-03-29T18:33:47.078Z,100831.59
2023-03-29T18:36:14.784Z,100835.50
2023-03-29T18:38:43.786Z,100827.94
2023-03-29T18:41:13.535Z,100821.34
2023-03-29T18:43:41.510Z,100829.78
2023-03-29T18:46:08.912Z,100820.31
2023-03-29T18:48:39.000Z,100818.06
2023-03-29T18:51:07.491Z,100821.16
2023-03-29T18:53:34.998Z,100818.88
2023-03-29T18:56:03.019Z,100809.66
2023-03-29T18:58:31.254Z,100812.13
2023-03-29T19:01:02.071Z,100810.88
2023-03-29T19:03:29.142Z,100805.97
2023-03-29T19:05:56.190Z,100804.72
2023-03-29T19:08:23.951Z,100803.50
2023-03-29T19:10:50.971Z,100807.19
2023-03-29T19:13:17.942Z,100804.94
2023-03-29T19:15:47.556Z,100800.00
2023-03-29T19:18:14.520Z,100797.75
2023-03-29T19:20:41.295Z,100799.19
2023-03-29T19:23:08.098Z,100809.44
2023-03-29T19:25:35.547Z,100798.16
2023-03-29T19:28:03.827Z,100802.47
2023-03-29T19:30:30.707Z,100794.25
2023-03-29T19:32:58.977Z,100800.22
2023-03-29T19:35:25.997Z,100788.06
2023-03-29T19:37:52.775Z,100783.34
2023-03-29T19:40:20.092Z,100785.59
2023-03-29T19:42:47.823Z,100775.53
2023-03-29T19:45:14.567Z,100778.41
2023-03-29T19:47:44.001Z,100781.06
2023-03-29T19:50:12.339Z,100782.09
2023-03-29T19:52:39.388Z,100771.41
2023-03-29T19:55:07.563Z,100761.75
2023-03-29T19:57:34.495Z,100758.06
2023-03-29T20:00:01.501Z,100744.72
2023-03-29T20:02:28.724Z,100748.22
2023-03-29T20:04:57.661Z,100743.50
2023-03-29T20:07:28.144Z,100732.00
2023-03-29T20:09:54.854Z,100717.63
2023-03-29T20:12:21.663Z,100720.09
2023-03-29T20:14:48.709Z,100715.16
2023-03-29T20:17:15.557Z,100718.66
2023-03-29T20:19:44.186Z,100711.28
2023-03-29T20:22:11.479Z,100704.09
2023-03-29T20:24:39.886Z,100702.25
2023-03-29T20:27:06.662Z,100706.56
2023-03-29T20:29:34.051Z,100708.78
2023-03-29T20:32:01.300Z,100694.41
2023-03-29T20:34:28.245Z,100695.25
2023-03-29T20:36:55.472Z,100695.03
2023-03-29T20:39:25.550Z,100688.69
2023-03-29T20:41:54.280Z,100689.28
2023-03-29T20:44:28.291Z,100674.69
2023-03-29T20:47:08.574Z,100675.31
2023-03-29T20:49:37.595Z,100680.44
2023-03-29T20:52:08.586Z,100669.53
2023-03-29T20:54:37.086Z,100662.16
2023-03-29T20:57:09.138Z,100654.75
2023-03-29T20:59:38.070Z,100646.75
2023-03-29T21:02:05.087Z,100647.56
2023-03-29T21:04:33.154Z,100640.16
2023-03-29T21:07:02.484Z,100644.25
2023-03-29T21:09:31.084Z,100639.94
2023-03-29T21:11:58.068Z,100631.72
2023-03-29T21:14:29.484Z,100628.84
2023-03-29T21:16:57.890Z,100625.94
2023-03-29T21:19:24.749Z,100617.13
2023-03-29T21:21:52.235Z,100622.25
2023-03-29T21:24:19.531Z,100609.91
2023-03-29T21:26:46.963Z,100621.66
2023-03-29T21:29:14.105Z,100606.44
2023-03-29T21:31:42.330Z,100606.44
2023-03-29T21:34:09.207Z,100603.75
2023-03-29T21:36:36.234Z,100611.78
2023-03-29T21:39:03.212Z,100591.22
2023-03-29T21:41:30.052Z,100602.16
2023-03-29T21:43:58.301Z,100594.94
2023-03-29T21:46:26.424Z,100594.72
2023-03-29T21:48:54.621Z,100595.97
2023-03-29T21:51:21.537Z,100586.31
2023-03-29T21:53:48.276Z,100587.34
2023-03-29T21:56:15.126Z,100588.16
2023-03-29T21:58:43.082Z,100577.47
2023-03-29T22:01:10.594Z,100576.66
2023-03-29T22:03:38.001Z,100574.00
2023-03-29T22:06:11.885Z,100570.09
2023-03-29T22:08:41.546Z,100562.28
2023-03-29T22:11:10.979Z,100552.63
2023-03-29T22:13:39.035Z,100554.28
2023-03-29T22:16:07.436Z,100550.78
2023-03-29T22:18:42.756Z,100555.28
2023-03-29T22:21:16.248Z,100545.03
2023-03-29T22:23:44.263Z,100543.41
2023-03-29T22:26:13.903Z,100546.88
2023-03-29T22:28:40.977Z,100552.22
2023-03-29T22:31:10.013Z,100551.41
2023-03-29T22:33:37.516Z,100546.88
2023-03-29T22:36:14.317Z,100541.75
2023-03-29T22:38:41.608Z,100539.09
2023-03-29T22:41:08.903Z,100537.25
2023-03-29T22:43:37.205Z,100541.75
2023-03-29T22:46:04.149Z,100529.22
2023-03-29T22:48:31.208Z,100540.94
2023-03-29T22:50:58.054Z,100529.22
2023-03-29T22:53:27.172Z,100538.84
2023-03-29T22:55:54.198Z,100531.66
2023-03-29T22:58:21.396Z,100536.19
2023-03-29T23:00:48.566Z,100529.81
2023-03-29T23:03:15.904Z,100529.81
2023-03-29T23:05:42.811Z,100521.59
2023-03-29T23:08:09.726Z,100517.91
2023-03-29T23:10:37.806Z,100528.97
2023-03-29T23:13:13.619Z,100515.03
2023-03-29T23:15:45.824Z,100515.03
2023-03-29T23:18:13.548Z,100509.69
2023-03-29T23:20:40.829Z,100512.34
2023-03-29T23:23:08.736Z,100505.38
2023-03-29T23:25:37.072Z,100498.16
2023-03-29T23:28:04.788Z,100497.34
2023-03-29T23:30:31.964Z,100507.22
2023-03-29T23:33:00.314Z,100507.22
2023-03-29T23:35:27.279Z,100503.72
2023-03-29T23:37:54.347Z,100495.72
2023-03-29T23:40:22.065Z,100497.56
2023-03-29T23:42:50.528Z,100481.75
2023-03-29T23:45:18.841Z,100476.41
